createdAt,value
2023-01-19T00:01:04.039Z,27.50
2023-01-19T00:02:10.328Z,27.15
2023-01-19T00:03:19.833Z,27.15
2023-01-19T00:04:31.801Z,28.63
2023-01-19T00:05:36.706Z,26.90
2023-01-19T00:06:52.858Z,27.63
2023-01-19T00:07:56.337Z,26.20
2023-01-19T00:09:10.916Z,25.83
2023-01-19T00:10:17.607Z,29.60
2023-01-19T00:11:28.615Z,26.05
2023-01-19T00:12:31.971Z,25.25
2023-01-19T00:13:50.006Z,26.52
2023-01-19T00:15:00.372Z,25.40
2023-01-19T00:16:15.463Z,25.65
2023-01-19T00:17:23.928Z,25.85
2023-01-19T00:18:26.982Z,24.23
2023-01-19T00:19:37.132Z,24.35
2023-01-19T00:20:45.834Z,24.10
2023-01-19T00:21:52.733Z,24.85
2023-01-19T00:22:55.486Z,24.15
2023-01-19T00:24:09.259Z,23.88
2023-01-19T00:25:19.507Z,24.13
2023-01-19T00:26:33.478Z,25.75
2023-01-19T00:27:43.346Z,23.75
2023-01-19T00:28:58.452Z,23.92
2023-01-19T00:30:09.453Z,25.17
2023-01-19T00:31:23.713Z,24.02
2023-01-19T00:32:27.147Z,23.55
2023-01-19T00:33:44.492Z,24.65
2023-01-19T00:34:52.818Z,22.13
2023-01-19T00:36:00.590Z,26.98
2023-01-19T00:37:03.655Z,25.95
2023-01-19T00:38:18.627Z,28.88
2023-01-19T00:39:25.094Z,29.73
2023-01-19T00:40:36.463Z,24.45
2023-01-19T00:41:54.261Z,22.67
2023-01-19T00:43:03.672Z,26.88
2023-01-19T00:44:09.346Z,27.52
2023-01-19T00:45:29.877Z,28.33
2023-01-19T00:46:42.757Z,21.45
2023-01-19T00:47:49.879Z,20.90
2023-01-19T00:48:56.987Z,23.92
2023-01-19T00:50:07.054Z,20.08
2023-01-19T00:51:17.009Z,22.52
2023-01-19T00:52:34.759Z,23.13
2023-01-19T00:53:43.803Z,21.73
2023-01-19T00:54:58.000Z,21.20
2023-01-19T00:56:08.738Z,26.17
2023-01-19T00:57:14.244Z,25.65
2023-01-19T00:58:20.234Z,24.27
2023-01-19T00:59:31.309Z,21.80
2023-01-19T01:00:44.398Z,22.27
2023-01-19T01:01:51.437Z,18.10
2023-01-19T01:03:04.440Z,19.92
2023-01-19T01:04:07.636Z,21.85
2023-01-19T01:05:18.222Z,21.85
2023-01-19T01:06:26.248Z,16.92
2023-01-19T01:07:43.404Z,19.88
2023-01-19T01:08:50.037Z,17.45
2023-01-19T01:10:03.943Z,17.42
2023-01-19T01:11:12.060Z,19.10
2023-01-19T01:12:17.498Z,20.55
2023-01-19T01:13:28.044Z,18.88
2023-01-19T01:14:33.692Z,18.10
2023-01-19T01:15:39.233Z,18.13
2023-01-19T01:16:42.113Z,18.23
2023-01-19T01:17:55.705Z,18.25
2023-01-19T01:19:09.364Z,18.10
2023-01-19T01:20:22.391Z,19.23
2023-01-19T01:21:27.126Z,16.33
2023-01-19T01:22:32.867Z,17.60
2023-01-19T01:23:50.393Z,18.75
2023-01-19T01:24:57.439Z,17.50
2023-01-19T01:26:05.954Z,19.58
2023-01-19T01:27:12.100Z,21.88
2023-01-19T01:28:20.705Z,19.40
2023-01-19T01:29:23.997Z,17.45
2023-01-19T01:30:37.110Z,20.20
2023-01-19T01:31:45.895Z,23.70
2023-01-19T01:32:59.254Z,21.98
2023-01-19T01:34:05.973Z,26.13
2023-01-19T01:35:17.218Z,37.13
2023-01-19T01:36:25.201Z,24.17
2023-01-19T01:37:33.557Z,27.73
2023-01-19T01:38:39.047Z,25.80
2023-01-19T01:39:52.013Z,30.00
2023-01-19T01:41:08.006Z,23.33
2023-01-19T01:43:22.241Z,22.98
2023-01-19T01:44:49.895Z,19.67
2023-01-19T01:45:55.562Z,20.48
2023-01-19T01:46:57.572Z,18.52
2023-01-19T01:48:08.791Z,18.48
2023-01-19T01:49:16.227Z,20.85
2023-01-19T01:50:24.477Z,22.83
2023-01-19T01:51:29.920Z,19.65
2023-01-19T01:52:36.419Z,19.00
2023-01-19T01:53:39.789Z,20.27
2023-01-19T01:54:45.743Z,17.70
2023-01-19T01:55:49.813Z,21.98
2023-01-19T01:57:02.234Z,20.52
2023-01-19T01:58:06.274Z,17.88
2023-01-19T01:59:26.240Z,20.13
2023-01-19T02:00:49.897Z,20.48
2023-01-19T02:02:07.934Z,17.88
2023-01-19T02:03:12.665Z,19.90
2023-01-19T02:04:14.977Z,16.80
2023-01-19T02:05:24.242Z,20.60
2023-01-19T02:06:26.721Z,19.80
2023-01-19T02:07:50.325Z,19.63
2023-01-19T02:09:11.029Z,21.45
2023-01-19T02:10:28.133Z,32.00
2023-01-19T02:11:46.139Z,17.15
2023-01-19T02:13:06.336Z,18.02
2023-01-19T02:14:11.196Z,24.20
2023-01-19T02:15:18.021Z,22.10
2023-01-19T02:16:22.756Z,22.05
2023-01-19T02:17:24.944Z,21.17
2023-01-19T02:18:32.177Z,21.08
2023-01-19T02:19:41.039Z,19.80
2023-01-19T02:20:53.782Z,21.05
2023-01-19T02:22:02.295Z,19.30
2023-01-19T02:23:12.227Z,17.75
2023-01-19T02:24:17.517Z,21.55
2023-01-19T02:25:23.033Z,20.42
2023-01-19T02:26:28.486Z,19.88
2023-01-19T02:27:34.257Z,17.65
2023-01-19T02:28:39.269Z,19.77
2023-01-19T02:29:44.216Z,21.77
2023-01-19T02:30:46.438Z,18.85
2023-01-19T02:31:51.192Z,18.65
2023-01-19T02:32:53.328Z,21.30
2023-01-19T02:33:58.483Z,18.67
2023-01-19T02:35:00.608Z,18.15
2023-01-19T02:36:05.815Z,19.75
2023-01-19T02:37:12.338Z,19.67
2023-01-19T02:38:19.190Z,20.00
2023-01-19T02:39:32.074Z,24.70
2023-01-19T02:40:38.679Z,20.15
2023-01-19T02:41:45.569Z,19.95
2023-01-19T02:42:53.120Z,19.17
2023-01-19T02:43:57.493Z,18.23
2023-01-19T02:45:06.709Z,20.27
2023-01-19T02:46:11.593Z,17.85
2023-01-19T02:47:14.172Z,17.75
2023-01-19T02:48:19.735Z,18.02
2023-01-19T02:49:21.875Z,18.08
2023-01-19T02:50:50.128Z,20.73
2023-01-19T02:51:52.502Z,18.00
2023-01-19T02:53:03.930Z,16.25
2023-01-19T02:54:20.289Z,16.92
2023-01-19T02:55:30.095Z,20.05
2023-01-19T02:56:46.425Z,17.70
2023-01-19T02:57:59.738Z,17.38
2023-01-19T02:59:09.598Z,17.42
2023-01-19T03:00:32.666Z,19.40
2023-01-19T03:01:50.761Z,17.40
2023-01-19T03:03:10.633Z,20.08
2023-01-19T03:04:27.600Z,17.80
2023-01-19T03:05:44.473Z,18.77
2023-01-19T03:06:55.338Z,20.83
2023-01-19T03:08:04.468Z,23.00
2023-01-19T03:09:17.942Z,21.45
2023-01-19T03:10:31.821Z,20.80
2023-01-19T03:11:40.050Z,16.80
2023-01-19T03:12:47.219Z,18.77
2023-01-19T03:13:55.656Z,17.88
2023-01-19T03:15:02.592Z,18.50
2023-01-19T03:16:14.757Z,18.90
2023-01-19T03:17:18.288Z,20.80
2023-01-19T03:18:26.296Z,28.63
2023-01-19T03:19:34.092Z,21.80
2023-01-19T03:20:40.595Z,20.77
2023-01-19T03:21:47.287Z,21.70
2023-01-19T03:22:56.933Z,21.50
2023-01-19T03:24:02.962Z,23.02
2023-01-19T03:25:09.576Z,23.55
2023-01-19T03:26:18.261Z,23.17
2023-01-19T03:27:28.176Z,24.52
2023-01-19T03:28:30.777Z,23.45
2023-01-19T03:29:37.698Z,23.45
2023-01-19T03:30:46.046Z,24.65
2023-01-19T03:31:53.917Z,23.98
2023-01-19T03:33:04.933Z,24.52
2023-01-19T03:34:12.528Z,25.95
2023-01-19T03:35:16.738Z,30.00
2023-01-19T03:36:28.163Z,28.33
2023-01-19T03:37:32.055Z,26.58
2023-01-19T03:38:40.262Z,27.30
2023-01-19T03:39:42.778Z,28.30
2023-01-19T03:40:50.109Z,26.98
2023-01-19T03:41:58.761Z,27.88
2023-01-19T03:43:05.441Z,26.75
2023-01-19T03:44:08.096Z,26.45
2023-01-19T03:45:15.365Z,27.50
2023-01-19T03:46:19.500Z,28.67
2023-01-19T03:47:25.475Z,26.30
2023-01-19T03:48:27.582Z,27.30
2023-01-19T03:49:34.139Z,26.60
2023-01-19T03:50:36.251Z,26.45
2023-01-19T03:51:42.003Z,25.90
2023-01-19T03:52:44.606Z,25.42
2023-01-19T03:53:50.008Z,23.83
2023-01-19T03:54:52.190Z,23.63
2023-01-19T03:55:57.194Z,24.67
2023-01-19T03:57:01.802Z,24.80
2023-01-19T03:58:06.545Z,24.90
2023-01-19T03:59:08.659Z,25.75
2023-01-19T04:00:15.251Z,25.13
2023-01-19T04:01:20.824Z,90.22
2023-01-19T04:02:25.962Z,51.38
2023-01-19T04:03:28.686Z,88.80
2023-01-19T04:04:33.368Z,47.67
2023-01-19T04:05:35.474Z,28.30
2023-01-19T04:06:40.085Z,25.52
2023-01-19T04:07:42.094Z,23.73
2023-01-19T04:08:47.152Z,23.13
2023-01-19T04:09:49.168Z,23.95
2023-01-19T04:10:53.855Z,24.48
2023-01-19T04:11:57.267Z,24.45
2023-01-19T04:13:05.127Z,24.52
2023-01-19T04:14:07.300Z,23.15
2023-01-19T04:15:12.174Z,22.73
2023-01-19T04:16:14.365Z,22.42
2023-01-19T04:17:19.058Z,25.48
2023-01-19T04:18:21.096Z,25.80
2023-01-19T04:19:25.835Z,25.55
2023-01-19T04:20:29.250Z,25.70
2023-01-19T04:21:33.873Z,23.98
2023-01-19T04:22:36.008Z,23.45
2023-01-19T04:23:40.609Z,22.88
2023-01-19T04:24:42.618Z,23.13
2023-01-19T04:25:47.305Z,21.95
2023-01-19T04:26:52.068Z,21.33
2023-01-19T04:27:58.461Z,21.65
2023-01-19T04:29:03.086Z,22.55
2023-01-19T04:30:10.076Z,21.58
2023-01-19T04:31:12.592Z,21.95
2023-01-19T04:32:17.605Z,22.27
2023-01-19T04:33:19.696Z,23.48
2023-01-19T04:34:24.408Z,23.95
2023-01-19T04:35:26.467Z,22.70
2023-01-19T04:36:31.407Z,23.52
2023-01-19T04:37:33.418Z,25.50
2023-01-19T04:38:38.670Z,23.15
2023-01-19T04:39:43.249Z,23.35
2023-01-19T04:40:45.302Z,23.98
2023-01-19T04:41:51.706Z,22.67
2023-01-19T04:45:54.088Z,21.92
2023-01-19T04:46:58.741Z,20.95
2023-01-19T04:48:00.949Z,20.60
2023-01-19T04:49:05.614Z,21.67
2023-01-19T04:50:09.281Z,22.15
2023-01-19T04:51:13.951Z,21.52
2023-01-19T04:52:15.959Z,22.27
2023-01-19T04:53:20.869Z,23.33
2023-01-19T04:54:23.038Z,23.23
2023-01-19T04:55:27.960Z,24.48
2023-01-19T04:56:30.234Z,21.20
2023-01-19T04:57:35.059Z,22.75
2023-01-19T04:58:37.131Z,22.63
2023-01-19T04:59:41.998Z,23.08
2023-01-19T05:00:46.736Z,22.20
2023-01-19T05:01:51.492Z,23.60
2023-01-19T05:02:53.727Z,23.08
2023-01-19T05:04:01.127Z,22.83
2023-01-19T05:05:06.049Z,23.98
2023-01-19T05:06:10.849Z,22.92
2023-01-19T05:07:13.086Z,22.42
2023-01-19T05:08:17.840Z,22.58
2023-01-19T05:09:19.930Z,21.77
2023-01-19T05:10:24.760Z,23.55
2023-01-19T05:11:26.991Z,22.48
2023-01-19T05:12:31.672Z,23.10
2023-01-19T05:13:33.736Z,22.25
2023-01-19T05:14:38.908Z,21.75
2023-01-19T05:15:40.881Z,22.30
2023-01-19T05:16:48.144Z,24.25
2023-01-19T05:17:50.289Z,24.67
2023-01-19T05:18:54.969Z,23.27
2023-01-19T05:19:56.963Z,24.23
2023-01-19T05:21:01.576Z,22.83
2023-01-19T05:22:04.384Z,22.92
2023-01-19T05:23:09.230Z,22.80
2023-01-19T05:24:11.535Z,21.52
2023-01-19T05:25:16.241Z,21.80
2023-01-19T05:26:18.584Z,21.73
2023-01-19T05:27:23.224Z,22.23
2023-01-19T05:28:25.199Z,23.20
2023-01-19T05:29:29.813Z,22.70
2023-01-19T05:30:31.978Z,21.17
2023-01-19T05:31:37.253Z,22.08
2023-01-19T05:32:42.204Z,21.15
2023-01-19T05:33:46.841Z,21.92
2023-01-19T05:34:51.525Z,24.23
2023-01-19T05:35:54.669Z,22.13
2023-01-19T05:36:59.482Z,24.45
2023-01-19T05:38:01.952Z,23.88
2023-01-19T05:39:06.845Z,23.00
2023-01-19T05:40:10.964Z,22.45
2023-01-19T05:41:15.629Z,20.55
2023-01-19T05:42:17.749Z,21.90
2023-01-19T05:43:22.360Z,20.48
2023-01-19T05:44:27.038Z,21.42
2023-01-19T05:45:31.809Z,20.88
2023-01-19T05:46:34.470Z,18.75
2023-01-19T05:47:40.025Z,20.10
2023-01-19T05:48:47.334Z,20.45
2023-01-19T05:49:52.003Z,19.67
2023-01-19T05:50:57.779Z,18.52
2023-01-19T05:52:02.455Z,19.52
2023-01-19T05:53:04.540Z,18.77
2023-01-19T05:54:10.499Z,19.80
2023-01-19T05:55:13.346Z,19.23
2023-01-19T05:56:19.023Z,20.05
2023-01-19T05:57:21.307Z,20.80
2023-01-19T05:58:25.975Z,23.38
2023-01-19T05:59:28.058Z,27.35
2023-01-19T06:00:32.727Z,20.50
2023-01-19T06:01:37.427Z,17.30
2023-01-19T06:02:43.671Z,22.80
2023-01-19T06:03:48.992Z,16.45
2023-01-19T06:04:53.629Z,17.33
2023-01-19T06:05:58.094Z,18.38
2023-01-19T06:07:02.996Z,17.27
2023-01-19T06:08:05.661Z,18.92
2023-01-19T06:09:10.842Z,17.80
2023-01-19T06:10:13.016Z,18.10
2023-01-19T06:11:17.666Z,18.10
2023-01-19T06:12:19.805Z,17.65
2023-01-19T06:13:24.598Z,17.95
2023-01-19T06:14:26.886Z,18.45
2023-01-19T06:15:31.514Z,18.85
2023-01-19T06:16:33.661Z,19.42
2023-01-19T06:17:38.493Z,17.33
2023-01-19T06:18:43.169Z,17.98
2023-01-19T06:19:47.809Z,18.70
2023-01-19T06:20:52.767Z,18.17
2023-01-19T06:21:54.825Z,16.88
2023-01-19T06:23:00.306Z,17.58
2023-01-19T06:24:03.674Z,18.85
2023-01-19T06:25:09.216Z,18.17
2023-01-19T06:26:11.407Z,17.52
2023-01-19T06:27:16.060Z,17.65
2023-01-19T06:28:18.427Z,17.60
2023-01-19T06:29:23.217Z,17.83
2023-01-19T06:30:25.446Z,18.58
2023-01-19T06:31:30.249Z,18.85
2023-01-19T06:32:35.343Z,19.20
2023-01-19T06:33:40.031Z,19.08
2023-01-19T06:34:44.755Z,19.90
2023-01-19T06:35:51.226Z,18.27
2023-01-19T06:36:55.869Z,18.80
2023-01-19T06:37:57.887Z,18.23
2023-01-19T06:39:03.476Z,17.92
2023-01-19T06:40:07.111Z,18.92
2023-01-19T06:41:11.710Z,18.75
2023-01-19T06:42:13.828Z,18.27
2023-01-19T06:43:20.378Z,18.08
2023-01-19T06:44:26.047Z,17.70
2023-01-19T06:45:30.836Z,18.40
2023-01-19T06:46:33.044Z,18.52
2023-01-19T06:47:37.736Z,18.17
2023-01-19T06:48:39.985Z,17.95
2023-01-19T06:49:44.764Z,15.82
2023-01-19T06:50:50.203Z,17.10
2023-01-19T06:51:54.935Z,17.15
2023-01-19T06:52:57.204Z,17.52
2023-01-19T06:54:02.020Z,16.95
2023-01-19T06:55:04.918Z,17.23
2023-01-19T06:56:10.326Z,18.23
2023-01-19T06:57:12.891Z,17.67
2023-01-19T06:58:17.661Z,17.10
2023-01-19T06:59:19.684Z,17.48
2023-01-19T07:00:24.791Z,16.20
2023-01-19T07:01:29.677Z,17.90
2023-01-19T07:02:31.850Z,18.08
2023-01-19T07:03:38.755Z,17.08
2023-01-19T07:04:41.019Z,16.48
2023-01-19T07:05:45.794Z,15.82
2023-01-19T07:06:50.578Z,16.27
2023-01-19T07:07:55.444Z,15.88
2023-01-19T07:08:58.044Z,15.55
2023-01-19T07:10:02.636Z,14.98
2023-01-19T07:11:26.139Z,16.95
2023-01-19T07:12:31.360Z,14.80
2023-01-19T07:13:36.656Z,14.45
2023-01-19T07:14:38.826Z,15.82
2023-01-19T07:15:43.767Z,15.15
2023-01-19T07:16:48.474Z,15.82
2023-01-19T07:17:53.146Z,15.23
2023-01-19T07:18:55.676Z,15.27
2023-01-19T07:20:00.343Z,15.07
2023-01-19T07:21:02.368Z,15.15
2023-01-19T07:22:09.629Z,15.20
2023-01-19T07:23:11.829Z,15.82
2023-01-19T07:24:16.584Z,14.02
2023-01-19T07:25:18.631Z,14.57
2023-01-19T07:26:25.396Z,14.73
2023-01-19T07:27:28.113Z,14.15
2023-01-19T07:28:33.732Z,14.85
2023-01-19T07:29:35.802Z,14.70
2023-01-19T07:30:40.507Z,15.07
2023-01-19T07:31:45.532Z,15.27
2023-01-19T07:32:47.595Z,14.43
2023-01-19T07:33:52.167Z,14.43
2023-01-19T07:34:54.369Z,14.18
2023-01-19T07:35:58.906Z,14.88
2023-01-19T07:37:01.010Z,14.27
2023-01-19T07:38:08.395Z,14.48
2023-01-19T07:39:10.583Z,15.82
2023-01-19T07:40:15.882Z,19.50
2023-01-19T07:41:18.036Z,17.05
2023-01-19T07:42:22.817Z,15.68
2023-01-19T07:43:25.064Z,14.98
2023-01-19T07:44:29.889Z,14.90
2023-01-19T07:45:35.501Z,14.82
2023-01-19T07:46:37.572Z,14.45
2023-01-19T07:49:00.958Z,16.42
2023-01-19T07:50:05.703Z,16.30
2023-01-19T07:51:11.768Z,16.13
2023-01-19T07:52:17.331Z,16.40
2023-01-19T07:53:24.730Z,16.13
2023-01-19T07:54:26.796Z,16.50
2023-01-19T07:55:31.394Z,16.58
2023-01-19T07:56:36.055Z,16.33
2023-01-19T07:57:38.105Z,17.27
2023-01-19T07:58:42.930Z,16.48
2023-01-19T07:59:44.942Z,17.13
2023-01-19T08:00:50.497Z,17.83
2023-01-19T08:01:54.354Z,16.67
2023-01-19T08:03:02.841Z,17.42
2023-01-19T08:04:08.557Z,18.25
2023-01-19T08:05:10.774Z,17.67
2023-01-19T08:06:22.898Z,17.67
2023-01-19T08:07:27.801Z,18.92
2023-01-19T08:08:36.078Z,19.70
2023-01-19T08:09:40.713Z,20.25
2023-01-19T08:10:42.687Z,19.45
2023-01-19T08:11:47.441Z,20.92
2023-01-19T08:12:52.035Z,20.45
2023-01-19T08:13:54.073Z,23.20
2023-01-19T08:14:58.744Z,23.20
2023-01-19T08:16:00.911Z,23.45
2023-01-19T08:17:06.771Z,22.80
2023-01-19T08:18:11.587Z,21.63
2023-01-19T08:19:16.266Z,21.73
2023-01-19T08:20:18.474Z,21.23
2023-01-19T08:21:23.283Z,22.42
2023-01-19T08:22:25.422Z,21.13
2023-01-19T08:23:30.646Z,23.85
2023-01-19T08:24:38.005Z,20.40
2023-01-19T08:25:42.365Z,21.60
2023-01-19T08:26:47.040Z,22.08
2023-01-19T08:27:49.271Z,22.75
2023-01-19T08:28:54.027Z,22.25
2023-01-19T08:29:56.081Z,23.13
2023-01-19T08:31:11.100Z,25.00
2023-01-19T08:32:23.615Z,19.83
2023-01-19T08:33:25.791Z,20.88
2023-01-19T08:34:31.094Z,21.50
2023-01-19T08:35:37.213Z,22.27
2023-01-19T08:36:41.816Z,20.63
2023-01-19T08:37:43.773Z,20.60
2023-01-19T08:38:48.810Z,19.80
2023-01-19T08:39:54.064Z,21.95
2023-01-19T08:40:58.777Z,21.25
2023-01-19T08:42:03.436Z,22.70
2023-01-19T08:43:11.099Z,23.60
2023-01-19T08:44:13.337Z,23.13
2023-01-19T08:45:18.287Z,23.10
2023-01-19T08:46:23.467Z,23.02
2023-01-19T08:47:25.600Z,21.20
2023-01-19T08:48:30.387Z,19.85
2023-01-19T08:49:35.678Z,23.75
2023-01-19T08:50:37.834Z,21.25
2023-01-19T08:51:42.516Z,22.25
2023-01-19T08:52:44.603Z,22.73
2023-01-19T08:53:49.562Z,27.88
2023-01-19T08:54:56.900Z,19.45
2023-01-19T08:56:01.352Z,18.40
2023-01-19T08:57:06.102Z,18.70
2023-01-19T08:58:08.976Z,18.73
2023-01-19T08:59:14.299Z,18.35
2023-01-19T09:00:17.773Z,19.50
2023-01-19T09:01:23.151Z,19.63
2023-01-19T09:02:27.967Z,15.23
2023-01-19T09:03:32.723Z,15.60
2023-01-19T09:04:38.133Z,16.98
2023-01-19T09:05:40.965Z,17.13
2023-01-19T09:06:45.623Z,15.40
2023-01-19T09:07:48.346Z,12.90
2023-01-19T09:08:53.028Z,11.20
2023-01-19T09:10:00.326Z,11.35
2023-01-19T09:11:02.853Z,11.80
2023-01-19T09:12:07.992Z,12.20
2023-01-19T09:13:11.720Z,14.48
2023-01-19T09:14:16.357Z,12.88
2023-01-19T09:15:18.725Z,11.52
2023-01-19T09:16:23.499Z,14.82
2023-01-19T09:17:25.731Z,16.48
2023-01-19T09:18:30.361Z,17.58
2023-01-19T09:19:33.381Z,15.23
2023-01-19T09:20:39.790Z,17.90
2023-01-19T09:21:42.009Z,17.65
2023-01-19T09:22:47.719Z,12.15
2023-01-19T09:23:52.423Z,12.18
2023-01-19T09:24:54.515Z,8.98
2023-01-19T09:26:03.467Z,9.75
2023-01-19T09:27:08.124Z,9.23
2023-01-19T09:28:12.282Z,9.93
2023-01-19T09:29:16.993Z,8.45
2023-01-19T09:30:20.078Z,7.70
2023-01-19T09:31:24.880Z,7.95
2023-01-19T09:32:29.613Z,7.72
2023-01-19T09:33:34.305Z,8.02
2023-01-19T09:34:38.903Z,8.40
2023-01-19T09:35:44.953Z,8.55
2023-01-19T09:36:49.976Z,9.18
2023-01-19T09:37:52.087Z,7.80
2023-01-19T09:38:56.750Z,7.15
2023-01-19T09:39:58.999Z,7.35
2023-01-19T09:41:07.285Z,6.70
2023-01-19T09:42:21.745Z,7.82
2023-01-19T09:43:37.651Z,10.60
2023-01-19T09:44:46.384Z,8.13
2023-01-19T09:45:52.177Z,8.52
2023-01-19T09:46:56.931Z,6.68
2023-01-19T09:48:01.903Z,6.80
2023-01-19T09:49:14.203Z,6.22
2023-01-19T09:50:28.994Z,7.55
2023-01-19T09:51:39.276Z,7.43
2023-01-19T09:52:47.335Z,10.73
2023-01-19T09:53:58.583Z,11.32
2023-01-19T09:55:03.275Z,14.43
2023-01-19T09:56:11.099Z,8.05
2023-01-19T09:57:16.836Z,9.48
2023-01-19T09:58:27.232Z,7.88
2023-01-19T09:59:34.041Z,7.57
2023-01-19T10:00:36.241Z,14.02
2023-01-19T10:01:50.428Z,10.45
2023-01-19T10:02:59.831Z,6.72
2023-01-19T10:04:30.208Z,7.57
2023-01-19T10:05:41.596Z,8.38
2023-01-19T10:06:44.307Z,11.68
2023-01-19T10:08:03.722Z,10.52
2023-01-19T10:09:20.037Z,7.53
2023-01-19T10:10:27.873Z,7.03
2023-01-19T10:11:51.515Z,6.32
2023-01-19T10:13:14.695Z,6.13
2023-01-19T10:14:26.015Z,6.43
2023-01-19T10:15:41.024Z,7.68
2023-01-19T10:16:54.383Z,12.77
2023-01-19T10:18:10.779Z,8.80
2023-01-19T10:19:25.086Z,8.93
2023-01-19T10:20:33.388Z,8.18
2023-01-19T10:21:44.959Z,9.15
2023-01-19T10:22:49.694Z,14.63
2023-01-19T10:23:58.623Z,13.57
2023-01-19T10:25:06.082Z,12.30
2023-01-19T10:26:16.802Z,12.82
2023-01-19T10:27:27.349Z,9.43
2023-01-19T10:28:32.938Z,9.82
2023-01-19T10:29:40.272Z,12.63
2023-01-19T10:30:47.351Z,14.82
2023-01-19T10:31:55.405Z,11.32
2023-01-19T10:33:00.436Z,16.60
2023-01-19T10:34:06.371Z,11.90
2023-01-19T10:35:15.306Z,19.35
2023-01-19T10:36:22.338Z,7.97
2023-01-19T10:37:33.690Z,7.07
2023-01-19T10:38:36.160Z,7.70
2023-01-19T10:39:41.373Z,9.15
2023-01-19T10:40:53.580Z,11.00
2023-01-19T10:42:00.649Z,6.53
2023-01-19T10:43:45.902Z,7.88
2023-01-19T10:44:49.601Z,12.70
2023-01-19T10:45:54.321Z,11.25
2023-01-19T10:47:02.246Z,9.13
2023-01-19T10:48:07.484Z,8.52
2023-01-19T10:49:28.360Z,9.80
2023-01-19T10:50:32.384Z,11.27
2023-01-19T10:51:38.260Z,14.10
2023-01-19T10:52:44.820Z,12.60
2023-01-19T10:53:59.280Z,12.32
2023-01-19T10:55:05.641Z,13.98
2023-01-19T10:56:20.160Z,7.03
2023-01-19T10:57:31.335Z,7.45
2023-01-19T10:58:35.502Z,8.65
2023-01-19T10:59:51.609Z,6.47
2023-01-19T11:00:53.955Z,9.82
2023-01-19T11:02:08.297Z,10.27
2023-01-19T11:03:26.443Z,8.68
2023-01-19T11:04:29.362Z,7.38
2023-01-19T11:05:38.638Z,6.80
2023-01-19T11:06:43.324Z,13.25
2023-01-19T11:07:45.395Z,9.38
2023-01-19T11:08:52.877Z,7.45
2023-01-19T11:10:22.634Z,11.75
2023-01-19T11:11:27.561Z,13.30
2023-01-19T11:12:32.212Z,7.68
2023-01-19T11:13:34.923Z,10.23
2023-01-19T11:14:42.260Z,9.73
2023-01-19T11:15:50.740Z,15.45
2023-01-19T11:16:58.971Z,12.27
2023-01-19T11:18:05.552Z,10.73
2023-01-19T11:19:21.943Z,6.80
2023-01-19T11:20:30.683Z,8.63
2023-01-19T11:21:33.376Z,7.38
2023-01-19T11:22:38.376Z,7.40
2023-01-19T11:23:50.042Z,10.98
2023-01-19T11:26:01.705Z,9.57
2023-01-19T11:27:06.704Z,5.28
2023-01-19T11:28:21.607Z,7.43
2023-01-19T11:29:28.921Z,10.02
2023-01-19T11:30:38.091Z,14.48
2023-01-19T11:31:43.224Z,8.48
2023-01-19T11:32:49.448Z,13.02
2023-01-19T11:33:53.348Z,10.35
2023-01-19T11:34:58.023Z,9.25
2023-01-19T11:36:06.104Z,8.88
2023-01-19T11:37:30.357Z,8.23
2023-01-19T11:38:35.825Z,4.90
2023-01-19T11:39:49.901Z,6.28
2023-01-19T11:40:55.071Z,12.88
2023-01-19T11:42:02.754Z,10.75
2023-01-19T11:43:05.218Z,9.30
2023-01-19T11:44:21.614Z,10.13
2023-01-19T11:45:24.117Z,7.30
2023-01-19T11:46:36.763Z,8.68
2023-01-19T11:47:43.640Z,7.07
2023-01-19T11:48:56.713Z,13.43
2023-01-19T11:50:05.599Z,6.40
2023-01-19T11:51:16.611Z,8.60
2023-01-19T11:52:28.707Z,8.05
2023-01-19T11:53:36.805Z,10.88
2023-01-19T11:54:50.373Z,7.53
2023-01-19T11:55:57.306Z,12.15
2023-01-19T11:57:03.404Z,7.45
2023-01-19T11:58:08.610Z,12.02
2023-01-19T11:59:15.659Z,7.97
2023-01-19T12:00:29.331Z,8.32
2023-01-19T12:01:39.744Z,15.75
2023-01-19T12:02:48.077Z,9.07
2023-01-19T12:03:59.572Z,27.15
2023-01-19T12:05:12.460Z,8.75
2023-01-19T12:06:21.764Z,13.27
2023-01-19T12:07:31.719Z,12.82
2023-01-19T12:08:39.584Z,15.10
2023-01-19T12:09:47.819Z,8.13
2023-01-19T12:10:55.936Z,10.90
2023-01-19T12:12:04.291Z,8.23
2023-01-19T12:13:08.978Z,6.05
2023-01-19T12:14:21.998Z,9.50
2023-01-19T12:15:35.849Z,5.90
2023-01-19T12:16:45.991Z,7.88
2023-01-19T12:17:51.305Z,12.43
2023-01-19T12:19:02.266Z,9.23
2023-01-19T12:20:16.817Z,15.60
2023-01-19T12:21:22.019Z,8.05
2023-01-19T12:22:29.070Z,8.60
2023-01-19T12:23:47.447Z,9.98
2023-01-19T12:24:57.452Z,14.60
2023-01-19T12:26:24.702Z,11.98
2023-01-19T12:27:41.970Z,8.25
2023-01-19T12:28:50.592Z,9.80
2023-01-19T12:29:57.675Z,11.40
2023-01-19T12:31:01.102Z,11.60
2023-01-19T12:32:23.038Z,9.73
2023-01-19T12:33:34.438Z,9.20
2023-01-19T12:34:46.787Z,9.60
2023-01-19T12:35:57.321Z,11.40
2023-01-19T12:37:06.887Z,10.13
2023-01-19T12:38:36.347Z,11.85
2023-01-19T12:39:51.162Z,8.15
2023-01-19T12:41:16.678Z,15.80
2023-01-19T12:42:21.615Z,9.02
2023-01-19T12:43:24.688Z,11.02
2023-01-19T12:44:34.456Z,6.72
2023-01-19T12:45:40.695Z,6.85
2023-01-19T12:46:46.019Z,6.70
2023-01-19T12:47:57.161Z,11.57
2023-01-19T12:49:06.561Z,10.00
2023-01-19T12:50:20.489Z,6.78
2023-01-19T12:51:23.787Z,8.82
2023-01-19T12:52:34.341Z,10.05
2023-01-19T12:53:39.309Z,10.00
2023-01-19T12:54:50.678Z,9.50
2023-01-19T12:56:02.614Z,14.23
2023-01-19T12:57:13.285Z,7.40
2023-01-19T12:58:20.574Z,12.90
2023-01-19T12:59:27.012Z,7.45
2023-01-19T13:00:35.128Z,7.85
2023-01-19T13:01:40.023Z,6.25
2023-01-19T13:02:44.783Z,6.28
2023-01-19T13:04:03.696Z,8.05
2023-01-19T13:05:27.890Z,10.35
2023-01-19T13:07:05.892Z,8.35
2023-01-19T13:08:26.759Z,8.70
2023-01-19T13:09:30.500Z,10.48
2023-01-19T13:11:10.869Z,8.32
2023-01-19T13:12:26.813Z,7.82
2023-01-19T13:13:30.501Z,8.23
2023-01-19T13:14:39.645Z,9.15
2023-01-19T13:15:42.728Z,11.32
2023-01-19T13:17:05.166Z,8.13
2023-01-19T13:18:11.749Z,7.78
2023-01-19T13:19:31.259Z,7.50
2023-01-19T13:20:47.228Z,8.82
2023-01-19T13:21:50.225Z,10.38
2023-01-19T13:23:26.383Z,11.10
2023-01-19T13:25:06.078Z,7.13
2023-01-19T13:26:17.584Z,8.98
2023-01-19T13:27:19.991Z,7.55
2023-01-19T13:28:33.516Z,8.57
2023-01-19T13:29:40.646Z,20.92
2023-01-19T13:30:53.765Z,7.22
2023-01-19T13:32:02.833Z,8.95
2023-01-19T13:33:17.180Z,8.82
2023-01-19T13:34:28.412Z,9.85
2023-01-19T13:35:33.303Z,9.75
2023-01-19T13:36:41.169Z,9.98
2023-01-19T13:37:45.740Z,12.65
2023-01-19T13:38:51.469Z,10.32
2023-01-19T13:39:57.698Z,12.02
2023-01-19T13:41:05.627Z,16.85
2023-01-19T13:42:17.787Z,8.65
2023-01-19T13:43:25.198Z,17.58
2023-01-19T13:44:32.647Z,8.27
2023-01-19T13:45:38.249Z,7.72
2023-01-19T13:46:43.800Z,8.45
2023-01-19T13:47:48.557Z,6.55
2023-01-19T13:48:59.232Z,18.70
2023-01-19T13:50:06.671Z,9.45
2023-01-19T13:51:20.688Z,6.55
2023-01-19T13:52:26.806Z,11.80
2023-01-19T13:53:32.529Z,11.95
2023-01-19T13:54:34.667Z,11.10
2023-01-19T13:55:39.426Z,9.13
2023-01-19T13:56:50.176Z,8.80
2023-01-19T13:57:53.094Z,9.50
2023-01-19T13:59:09.946Z,9.45
2023-01-19T14:00:21.133Z,10.50
2023-01-19T14:01:28.906Z,9.43
2023-01-19T14:02:34.151Z,7.95
2023-01-19T14:03:38.894Z,8.68
2023-01-19T14:04:43.637Z,12.70
2023-01-19T14:05:51.399Z,7.30
2023-01-19T14:06:56.501Z,9.65
2023-01-19T14:08:06.891Z,9.70
2023-01-19T14:09:18.728Z,9.68
2023-01-19T14:10:21.010Z,12.23
2023-01-19T14:11:25.694Z,12.38
2023-01-19T14:12:32.058Z,9.73
2023-01-19T14:13:41.619Z,8.15
2023-01-19T14:14:48.426Z,7.38
2023-01-19T14:15:56.194Z,8.75
2023-01-19T14:17:00.896Z,10.95
2023-01-19T14:18:27.379Z,10.07
2023-01-19T14:19:29.493Z,8.75
2023-01-19T14:20:37.078Z,8.38
2023-01-19T14:21:46.185Z,7.35
2023-01-19T14:22:51.138Z,7.93
2023-01-19T14:23:57.992Z,12.10
2023-01-19T14:25:33.564Z,12.65
2023-01-19T14:26:47.387Z,8.52
2023-01-19T14:27:52.036Z,8.20
2023-01-19T14:28:54.728Z,8.65
2023-01-19T14:30:18.391Z,10.20
2023-01-19T14:31:25.365Z,9.40
2023-01-19T14:32:30.477Z,18.30
2023-01-19T14:33:34.092Z,10.23
2023-01-19T14:34:42.943Z,10.43
2023-01-19T14:35:45.082Z,8.15
2023-01-19T14:36:54.516Z,8.18
2023-01-19T14:37:59.138Z,14.93
2023-01-19T14:39:05.165Z,10.32
2023-01-19T14:40:21.575Z,11.30
2023-01-19T14:41:27.295Z,13.32
2023-01-19T14:42:35.051Z,9.45